createdAt,value
2022-08-02T00:00:58.363Z,23.73
2022-08-02T00:03:26.071Z,23.71
2022-08-02T00:05:55.159Z,23.71
2022-08-02T00:08:22.995Z,23.41
2022-08-02T00:10:50.784Z,23.68
2022-08-02T00:13:18.514Z,23.67
2022-08-02T00:15:46.241Z,23.64
2022-08-02T00:18:13.965Z,23.65
2022-08-02T00:20:41.704Z,23.64
2022-08-02T00:25:32.020Z,23.61
2022-08-02T00:27:59.710Z,23.60
2022-08-02T00:30:27.441Z,23.59
2022-08-02T00:32:55.145Z,23.59
2022-08-02T00:35:22.892Z,23.57
2022-08-02T00:37:50.584Z,23.57
2022-08-02T00:40:22.346Z,23.55
2022-08-02T00:43:11.154Z,23.53
2022-08-02T00:46:01.913Z,23.52
2022-08-02T00:48:27.865Z,23.51
2022-08-02T00:50:56.627Z,23.45
2022-08-02T00:53:24.350Z,23.49
2022-08-02T00:55:52.090Z,23.48
2022-08-02T00:58:21.651Z,23.47
2022-08-02T01:00:49.386Z,23.46
2022-08-02T01:03:17.097Z,23.45
2022-08-02T01:06:09.086Z,23.44
2022-08-02T01:08:33.007Z,23.42
2022-08-02T01:11:00.752Z,23.42
2022-08-02T01:13:29.810Z,23.34
2022-08-02T01:16:01.775Z,22.89
2022-08-02T01:18:32.785Z,23.38
2022-08-02T01:21:22.487Z,23.37
2022-08-02T01:23:57.830Z,23.36
2022-08-02T01:26:33.256Z,23.33
2022-08-02T01:29:03.709Z,23.04
2022-08-02T01:31:33.677Z,23.32
2022-08-02T01:34:03.873Z,23.31
2022-08-02T01:36:34.184Z,23.04
2022-08-02T01:39:01.881Z,23.29
2022-08-02T01:41:29.700Z,23.28
2022-08-02T01:43:58.803Z,23.27
2022-08-02T01:46:28.504Z,23.13
2022-08-02T01:48:57.595Z,23.10
2022-08-02T01:51:46.023Z,23.23
2022-08-02T01:54:15.775Z,23.22
2022-08-02T01:56:43.635Z,23.22
2022-08-02T01:59:12.939Z,23.19
2022-08-02T02:01:42.129Z,23.18
2022-08-02T02:04:09.877Z,23.17
2022-08-02T02:06:37.778Z,23.16
2022-08-02T02:09:05.632Z,22.86
2022-08-02T02:12:06.023Z,23.16
2022-08-02T02:14:21.040Z,23.12
2022-08-02T02:16:50.118Z,23.12
2022-08-02T02:19:21.417Z,23.10
2022-08-02T02:21:50.601Z,23.10
2022-08-02T02:24:18.466Z,23.10
2022-08-02T02:26:52.571Z,23.09
2022-08-02T02:29:21.883Z,23.09
2022-08-02T02:31:50.958Z,23.06
2022-08-02T02:34:21.964Z,23.06
2022-08-02T02:36:50.587Z,23.06
2022-08-02T02:39:20.459Z,23.04
2022-08-02T02:41:49.048Z,23.02
2022-08-02T02:44:18.249Z,22.81
2022-08-02T02:46:45.982Z,23.00
2022-08-02T02:49:15.121Z,23.00
2022-08-02T02:51:42.973Z,22.99
2022-08-02T02:54:30.196Z,22.99
2022-08-02T02:56:58.495Z,22.97
2022-08-02T02:59:26.207Z,22.98
2022-08-02T03:01:57.296Z,22.96
2022-08-02T03:04:27.896Z,22.73
2022-08-02T03:07:15.603Z,22.95
2022-08-02T03:09:43.309Z,22.92
2022-08-02T03:12:11.291Z,22.92
2022-08-02T03:14:42.683Z,22.92
2022-08-02T03:17:10.418Z,22.90
2022-08-02T03:19:39.465Z,22.90
2022-08-02T03:22:07.209Z,22.85
2022-08-02T03:24:34.926Z,22.83
2022-08-02T03:27:02.656Z,22.81
2022-08-02T03:29:34.138Z,22.82
2022-08-02T03:32:02.421Z,22.84
2022-08-02T03:34:30.338Z,22.83
2022-08-02T03:36:59.425Z,22.33
2022-08-02T03:39:27.472Z,22.78
2022-08-02T03:41:55.573Z,22.59
2022-08-02T03:44:23.312Z,22.75
2022-08-02T03:46:51.055Z,22.73
2022-08-02T03:49:19.250Z,22.74
2022-08-02T03:51:47.004Z,22.18
2022-08-02T03:54:16.098Z,22.71
2022-08-02T03:56:43.822Z,22.35
2022-08-02T03:59:12.582Z,22.17
2022-08-02T04:01:40.422Z,22.52
2022-08-02T04:04:08.530Z,22.67
2022-08-02T04:06:40.147Z,22.66
2022-08-02T04:09:09.678Z,22.66
2022-08-02T04:11:38.811Z,22.66
2022-08-02T04:14:07.356Z,22.63
2022-08-02T04:16:41.723Z,22.64
2022-08-02T04:19:14.887Z,22.43
2022-08-02T04:21:51.882Z,22.61
2022-08-02T04:24:24.307Z,22.59
2022-08-02T04:26:54.510Z,22.59
2022-08-02T04:29:26.088Z,22.57
2022-08-02T04:31:53.853Z,22.56
2022-08-02T04:34:21.650Z,22.55
2022-08-02T04:36:49.384Z,22.52
2022-08-02T04:39:17.114Z,22.50
2022-08-02T04:41:46.271Z,22.12
2022-08-02T04:44:15.602Z,22.47
2022-08-02T04:46:44.287Z,22.43
2022-08-02T04:49:12.070Z,22.26
2022-08-02T04:51:40.608Z,22.39
2022-08-02T04:54:09.585Z,22.05
2022-08-02T04:56:38.025Z,22.39
2022-08-02T04:59:05.801Z,22.41
2022-08-02T05:01:35.561Z,22.41
2022-08-02T05:04:03.480Z,22.45
2022-08-02T05:06:31.274Z,22.48
2022-08-02T05:08:58.979Z,22.51
2022-08-02T05:11:36.428Z,22.54
2022-08-02T05:14:05.355Z,22.23
2022-08-02T05:16:34.591Z,22.55
2022-08-02T05:19:02.750Z,22.53
2022-08-02T05:21:31.393Z,22.53
2022-08-02T05:23:59.104Z,22.52
2022-08-02T05:26:26.849Z,22.53
2022-08-02T05:28:54.575Z,22.48
2022-08-02T05:31:22.469Z,22.47
2022-08-02T05:33:51.519Z,22.49
2022-08-02T05:36:19.264Z,22.26
2022-08-02T05:38:50.831Z,22.21
2022-08-02T05:41:19.183Z,22.22
2022-08-02T05:43:46.962Z,22.20
2022-08-02T05:46:14.721Z,22.22
2022-08-02T05:48:42.448Z,22.26
2022-08-02T05:51:13.760Z,21.84
2022-08-02T05:53:46.209Z,22.35
2022-08-02T05:56:19.398Z,22.38
2022-08-02T05:58:51.349Z,22.10
2022-08-02T06:01:24.128Z,22.45
2022-08-02T06:03:52.493Z,22.47
2022-08-02T06:06:24.180Z,22.51
2022-08-02T06:08:52.790Z,22.52
2022-08-02T06:11:22.875Z,22.59
2022-08-02T06:13:50.374Z,22.61
2022-08-02T06:16:31.872Z,22.63
2022-08-02T06:19:00.489Z,22.69
2022-08-02T06:22:31.691Z,22.37
2022-08-02T06:24:19.215Z,22.78
2022-08-02T06:26:46.959Z,22.81
2022-08-02T06:29:14.661Z,22.57
2022-08-02T06:31:42.692Z,22.89
2022-08-02T06:34:13.052Z,22.92
2022-08-02T06:36:44.509Z,22.68
2022-08-02T06:39:15.571Z,22.66
2022-08-02T06:41:43.460Z,22.97
2022-08-02T06:44:46.000Z,22.79
2022-08-02T06:47:11.923Z,23.04
2022-08-02T06:49:51.413Z,23.04
2022-08-02T06:52:27.776Z,23.11
2022-08-02T06:54:56.545Z,23.13
2022-08-02T06:57:24.315Z,23.16
2022-08-02T06:59:52.119Z,23.19
2022-08-02T07:02:19.921Z,23.20
2022-08-02T07:04:47.645Z,23.23
2022-08-02T07:07:15.416Z,23.23
2022-08-02T07:10:00.301Z,23.25
2022-08-02T07:12:29.142Z,23.03
2022-08-02T07:14:56.920Z,23.33
2022-08-02T07:17:24.660Z,23.09
2022-08-02T07:19:52.364Z,22.98
2022-08-02T07:22:23.187Z,22.64
2022-08-02T07:24:52.266Z,22.60
2022-08-02T07:27:20.041Z,22.58
2022-08-02T07:29:47.794Z,22.74
2022-08-02T07:32:16.283Z,22.53
2022-08-02T07:34:50.572Z,22.83
2022-08-02T07:37:54.742Z,22.92
2022-08-02T07:40:14.724Z,23.07
2022-08-02T07:42:43.360Z,23.11
2022-08-02T07:45:11.874Z,23.16
2022-08-02T07:47:39.879Z,23.23
2022-08-02T07:50:08.706Z,23.23
2022-08-02T07:52:36.505Z,23.24
2022-08-02T07:55:04.263Z,23.18
2022-08-02T07:57:33.361Z,23.23
2022-08-02T08:00:01.065Z,23.33
2022-08-02T08:02:28.790Z,23.46
2022-08-02T08:04:56.499Z,23.59
2022-08-02T08:07:25.499Z,23.70
2022-08-02T08:09:56.418Z,23.80
2022-08-02T08:12:24.626Z,23.88
2022-08-02T08:14:53.711Z,23.98
2022-08-02T08:17:21.621Z,24.06
2022-08-02T08:19:50.990Z,24.06
2022-08-02T08:22:20.059Z,24.15
2022-08-02T08:24:48.376Z,24.27
2022-08-02T08:27:16.437Z,24.34
2022-08-02T08:29:44.258Z,24.38
2022-08-02T08:32:17.676Z,24.40
2022-08-02T08:34:46.073Z,24.45
2022-08-02T08:37:17.997Z,24.36
2022-08-02T08:39:57.534Z,24.34
2022-08-02T08:42:27.272Z,24.41
2022-08-02T08:44:56.111Z,24.08
2022-08-02T08:47:25.320Z,24.39
2022-08-02T08:49:53.613Z,24.42
2022-08-02T08:52:21.486Z,24.53
2022-08-02T08:54:49.728Z,24.51
2022-08-02T08:57:18.138Z,24.74
2022-08-02T08:59:46.327Z,24.73
2022-08-02T09:02:17.783Z,24.89
2022-08-02T09:04:54.722Z,24.66
2022-08-02T09:07:23.196Z,24.92
2022-08-02T09:09:50.914Z,24.90
2022-08-02T09:12:19.643Z,24.92
2022-08-02T09:14:50.104Z,24.89
2022-08-02T09:17:18.265Z,24.91
2022-08-02T09:19:46.555Z,24.96
2022-08-02T09:22:16.477Z,25.02
2022-08-02T09:24:45.912Z,25.06
2022-08-02T09:27:14.698Z,25.05
2022-08-02T09:30:05.931Z,25.12
2022-08-02T09:32:33.306Z,25.16
2022-08-02T09:35:01.140Z,25.16
2022-08-02T09:37:31.184Z,25.16
2022-08-02T09:40:00.440Z,25.14
2022-08-02T09:42:30.742Z,25.13
2022-08-02T09:45:00.336Z,25.13
2022-08-02T09:47:28.828Z,25.14
2022-08-02T09:49:59.145Z,24.70
2022-08-02T09:52:37.473Z,24.95
2022-08-02T09:55:12.589Z,25.17
2022-08-02T09:57:40.311Z,25.18
2022-08-02T10:00:14.852Z,25.19
2022-08-02T10:03:02.787Z,25.18
2022-08-02T10:05:36.260Z,25.19
2022-08-02T10:08:13.850Z,25.21
2022-08-02T10:10:42.947Z,25.23
2022-08-02T10:13:10.889Z,25.24
2022-08-02T10:15:38.816Z,24.54
2022-08-02T10:18:37.660Z,25.26
2022-08-02T10:21:07.964Z,25.30
2022-08-02T10:23:36.332Z,25.29
2022-08-02T10:26:05.393Z,25.10
2022-08-02T10:28:33.136Z,25.01
2022-08-02T10:31:01.436Z,25.30
2022-08-02T10:33:32.544Z,25.05
2022-08-02T10:36:04.480Z,25.32
2022-08-02T10:38:35.615Z,25.31
2022-08-02T10:41:03.329Z,25.32
2022-08-02T10:43:53.108Z,25.29
2022-08-02T10:46:25.096Z,25.34
2022-08-02T10:52:07.973Z,25.34
2022-08-02T10:54:37.909Z,25.08
2022-08-02T10:57:15.366Z,25.33
2022-08-02T10:59:44.951Z,25.18
2022-08-02T11:02:13.329Z,25.25
2022-08-02T11:05:04.352Z,25.24
2022-08-02T11:07:37.429Z,25.22
2022-08-02T11:10:37.029Z,25.19
2022-08-02T11:13:10.498Z,25.16
2022-08-02T11:15:58.919Z,25.17
2022-08-02T11:18:59.830Z,25.17
2022-08-02T11:21:28.345Z,24.92
2022-08-02T11:23:56.255Z,25.16
2022-08-02T11:26:45.364Z,25.16
2022-08-02T11:29:15.763Z,25.15
2022-08-02T11:31:46.024Z,25.13
2022-08-02T11:34:36.823Z,25.13
2022-08-02T11:37:01.486Z,25.12
2022-08-02T11:39:29.232Z,25.13
2022-08-02T11:41:58.773Z,25.08
2022-08-02T11:44:26.806Z,24.88
2022-08-02T11:46:57.057Z,25.14
2022-08-02T11:49:25.358Z,24.79
2022-08-02T11:51:54.582Z,25.15
2022-08-02T11:54:26.224Z,25.15
2022-08-02T11:56:53.932Z,25.14
2022-08-02T11:59:22.020Z,25.16
2022-08-02T12:01:49.779Z,25.17
2022-08-02T12:04:22.683Z,24.95
2022-08-02T12:06:57.913Z,24.80
2022-08-02T12:09:26.425Z,25.19
2022-08-02T12:11:54.304Z,25.12
2022-08-02T12:14:22.117Z,25.22
2022-08-02T12:17:07.662Z,25.19
2022-08-02T12:19:36.779Z,25.22
2022-08-02T12:22:08.920Z,25.02
2022-08-02T12:24:36.958Z,25.25
2022-08-02T12:27:04.684Z,25.24
2022-08-02T12:29:58.573Z,25.15
2022-08-02T12:32:24.955Z,24.96
2022-08-02T12:35:06.786Z,25.31
2022-08-02T12:37:34.873Z,25.31
2022-08-02T12:40:25.745Z,25.34
2022-08-02T12:42:55.301Z,25.33
2022-08-02T12:45:23.270Z,25.33
2022-08-02T12:47:54.017Z,25.36
2022-08-02T12:50:26.104Z,25.35
2022-08-02T12:53:04.368Z,25.07
2022-08-02T12:56:00.753Z,25.37
2022-08-02T12:58:20.055Z,25.37
2022-08-02T13:00:53.204Z,25.08
2022-08-02T13:04:11.415Z,25.40
2022-08-02T13:06:41.120Z,25.40
2022-08-02T13:08:59.552Z,25.11
2022-08-02T13:11:27.350Z,25.41
2022-08-02T13:13:55.144Z,25.43
2022-08-02T13:16:30.788Z,25.45
2022-08-02T13:18:59.067Z,25.42
2022-08-02T13:21:41.486Z,25.47
2022-08-02T13:24:32.929Z,25.48
2022-08-02T13:27:04.459Z,25.50
2022-08-02T13:29:36.140Z,25.52
2022-08-02T13:32:03.853Z,25.52
2022-08-02T13:34:31.594Z,25.54
2022-08-02T13:37:00.648Z,25.56
2022-08-02T13:39:28.388Z,25.57
2022-08-02T13:41:56.162Z,25.59
2022-08-02T13:44:23.892Z,25.61
2022-08-02T13:46:51.574Z,25.61
2022-08-02T13:49:20.461Z,25.45
2022-08-02T13:51:49.941Z,25.38
2022-08-02T13:54:18.995Z,25.65
2022-08-02T13:56:46.719Z,25.65
2022-08-02T13:59:57.457Z,25.67
2022-08-02T14:02:02.297Z,25.69
2022-08-02T14:04:30.816Z,25.71
2022-08-02T14:06:59.189Z,25.57
2022-08-02T14:09:28.377Z,25.75
2022-08-02T14:11:56.079Z,25.76
2022-08-02T14:14:23.854Z,25.81
2022-08-02T14:16:51.563Z,25.84
2022-08-02T14:19:21.772Z,25.89
2022-08-02T14:21:49.554Z,25.90
2022-08-02T14:24:19.441Z,25.92
2022-08-02T14:26:48.872Z,25.95
2022-08-02T14:29:16.695Z,26.00
2022-08-02T14:31:45.178Z,26.02
2022-08-02T14:34:13.140Z,26.04
2022-08-02T14:36:40.918Z,25.78
2022-08-02T14:39:08.649Z,26.11
2022-08-02T14:41:59.167Z,26.09
2022-08-02T14:44:26.513Z,26.25
2022-08-02T14:46:54.299Z,26.50
2022-08-02T14:49:24.499Z,26.58
2022-08-02T14:51:53.937Z,26.48
2022-08-02T14:54:28.196Z,26.87
2022-08-02T14:56:58.705Z,26.88
2022-08-02T14:59:27.824Z,26.91
2022-08-02T15:01:55.756Z,26.94
2022-08-02T15:04:23.566Z,26.97
2022-08-02T15:06:51.277Z,26.99
2022-08-02T15:09:19.100Z,27.02
2022-08-02T15:11:47.939Z,27.04
2022-08-02T15:14:20.358Z,27.05
2022-08-02T15:16:57.223Z,26.98
2022-08-02T15:19:35.453Z,27.09
2022-08-02T15:22:16.108Z,27.09
2022-08-02T15:24:45.181Z,26.82
2022-08-02T15:27:14.683Z,26.92
2022-08-02T15:29:42.850Z,27.24
2022-08-02T15:32:12.480Z,27.26
2022-08-02T15:34:40.357Z,27.27
2022-08-02T15:37:08.092Z,27.29
2022-08-02T15:39:35.832Z,27.35
2022-08-02T15:42:03.683Z,27.33
2022-08-02T15:44:31.422Z,27.41
2022-08-02T15:46:59.138Z,27.43
2022-08-02T15:49:28.270Z,27.47
2022-08-02T15:51:56.145Z,27.48
2022-08-02T15:54:23.880Z,27.51
2022-08-02T15:56:51.674Z,27.53
2022-08-02T15:59:19.456Z,27.55
2022-08-02T16:01:48.235Z,27.58
2022-08-02T16:04:16.173Z,27.61
2022-08-02T16:06:45.370Z,27.66
2022-08-02T16:09:13.165Z,27.67
2022-08-02T16:11:41.076Z,27.67
2022-08-02T16:14:09.546Z,27.72
2022-08-02T16:16:37.721Z,27.73
2022-08-02T16:19:47.212Z,27.76
2022-08-02T16:21:54.984Z,27.72
2022-08-02T16:24:22.774Z,27.74
2022-08-02T16:26:50.568Z,27.77
2022-08-02T16:29:19.727Z,27.78
2022-08-02T16:31:47.510Z,27.78
2022-08-02T16:34:15.414Z,27.82
2022-08-02T16:36:43.162Z,27.84
2022-08-02T16:39:12.299Z,27.84
2022-08-02T16:41:52.004Z,27.87
2022-08-02T16:44:27.103Z,27.89
2022-08-02T16:47:01.465Z,27.91
2022-08-02T16:50:04.688Z,27.93
2022-08-02T16:52:18.846Z,27.92
2022-08-02T16:54:49.835Z,27.97
2022-08-02T16:57:19.845Z,28.00
2022-08-02T16:59:57.711Z,28.00
2022-08-02T17:02:26.255Z,28.03
2022-08-02T17:04:54.028Z,28.02
2022-08-02T17:08:07.449Z,28.05
2022-08-02T17:10:11.179Z,28.06
2022-08-02T17:12:39.052Z,28.06
2022-08-02T17:16:07.942Z,28.07
2022-08-02T17:17:55.455Z,28.03
2022-08-02T17:20:24.478Z,27.90
2022-08-02T17:22:52.522Z,28.09
2022-08-02T17:25:21.734Z,28.10
2022-08-02T17:27:55.690Z,27.78
2022-08-02T17:30:26.754Z,28.07
2022-08-02T17:32:57.808Z,28.08
2022-08-02T17:35:27.208Z,28.04
2022-08-02T17:38:11.373Z,28.02
2022-08-02T17:40:47.034Z,28.00
2022-08-02T17:43:16.715Z,27.79
2022-08-02T17:46:01.049Z,27.97
2022-08-02T17:48:54.969Z,27.96
2022-08-02T17:52:15.296Z,27.89
2022-08-02T17:54:11.215Z,27.88
2022-08-02T17:56:42.672Z,27.84
2022-08-02T17:59:12.236Z,27.78
2022-08-02T18:01:53.119Z,27.77
2022-08-02T18:04:27.645Z,27.72
2022-08-02T18:06:57.118Z,27.37
2022-08-02T18:09:25.231Z,27.62
2022-08-02T18:11:56.112Z,27.60
2022-08-02T18:14:24.408Z,27.57
2022-08-02T18:16:54.241Z,27.53
2022-08-02T18:19:21.961Z,27.52
2022-08-02T18:21:49.725Z,27.47
2022-08-02T18:24:19.198Z,27.05
2022-08-02T18:26:51.823Z,27.41
2022-08-02T18:29:20.889Z,27.38
2022-08-02T18:31:51.123Z,27.34
2022-08-02T18:34:19.399Z,27.31
2022-08-02T18:36:51.943Z,27.27
2022-08-02T18:39:19.638Z,27.25
2022-08-02T18:41:47.992Z,27.14
2022-08-02T18:44:18.770Z,27.20
2022-08-02T18:46:49.391Z,27.18
2022-08-02T18:49:17.297Z,27.10
2022-08-02T18:51:45.076Z,27.11
2022-08-02T18:54:12.781Z,27.04
2022-08-02T18:56:40.534Z,27.06
2022-08-02T18:59:15.336Z,26.97
2022-08-02T19:01:50.462Z,27.01
2022-08-02T19:04:27.117Z,26.98
2022-08-02T19:06:56.027Z,26.96
2022-08-02T19:09:23.911Z,26.87
2022-08-02T19:11:51.681Z,26.91
2022-08-02T19:14:27.231Z,26.90
2022-08-02T19:16:56.041Z,26.87
2022-08-02T19:19:29.088Z,26.86
2022-08-02T19:24:45.860Z,26.80
2022-08-02T19:27:14.609Z,26.77
2022-08-02T19:29:48.854Z,26.75
2022-08-02T19:32:41.366Z,26.74
2022-08-02T19:35:19.436Z,26.71
2022-08-02T19:37:59.117Z,26.68
2022-08-02T19:40:28.861Z,26.49
2022-08-02T19:44:23.313Z,26.65
2022-08-02T19:45:50.790Z,26.63
2022-08-02T19:48:23.571Z,26.62
2022-08-02T19:50:55.771Z,26.60
2022-08-02T19:53:23.725Z,26.58
2022-08-02T19:56:00.764Z,26.56
2022-08-02T19:58:30.434Z,26.54
2022-08-02T20:00:58.887Z,26.53
2022-08-02T20:03:50.960Z,26.49
2022-08-02T20:06:15.646Z,26.49
2022-08-02T20:11:34.474Z,26.41
2022-08-02T20:14:03.774Z,26.44
2022-08-02T20:16:33.028Z,26.44
2022-08-02T20:19:01.109Z,26.42
2022-08-02T20:21:36.084Z,26.17
2022-08-02T20:24:06.360Z,26.39
2022-08-02T20:26:35.350Z,26.38
2022-08-02T20:29:03.834Z,26.33
2022-08-02T20:31:31.607Z,26.34
2022-08-02T20:33:59.330Z,26.33
2022-08-02T20:36:27.259Z,26.33
2022-08-02T20:38:56.351Z,26.31
2022-08-02T20:41:37.163Z,26.29
2022-08-02T20:44:15.484Z,26.28
2022-08-02T20:46:44.117Z,26.24
2022-08-02T20:49:23.129Z,25.99
2022-08-02T20:51:53.934Z,26.23
2022-08-02T20:54:23.673Z,25.90
2022-08-02T20:56:51.415Z,26.21
2022-08-02T20:59:21.039Z,26.20
2022-08-02T21:01:57.005Z,26.18
2022-08-02T21:04:25.345Z,26.17
2022-08-02T21:06:53.087Z,26.18
2022-08-02T21:09:23.807Z,26.16
2022-08-02T21:12:18.381Z,26.13
2022-08-02T21:14:49.628Z,26.12
2022-08-02T21:17:18.128Z,26.12
2022-08-02T21:19:53.044Z,26.11
2022-08-02T21:22:20.772Z,26.10
2022-08-02T21:24:57.012Z,26.09
2022-08-02T21:27:53.226Z,26.06
2022-08-02T21:30:13.453Z,26.05
2022-08-02T21:32:42.285Z,26.03
2022-08-02T21:35:12.154Z,26.01
2022-08-02T21:37:45.080Z,25.99
2022-08-02T21:40:14.536Z,25.94
2022-08-02T21:42:42.283Z,26.00
2022-08-02T21:45:17.428Z,25.73
2022-08-02T21:47:47.825Z,25.98
2022-08-02T21:50:16.407Z,25.96
2022-08-02T21:52:52.094Z,25.96
2022-08-02T21:55:24.353Z,25.88
2022-08-02T21:58:09.349Z,25.93
2022-08-02T22:00:37.177Z,25.92
2022-08-02T22:03:22.517Z,25.92
2022-08-02T22:05:50.601Z,25.89
2022-08-02T22:08:18.569Z,25.89
2022-08-02T22:11:03.144Z,25.87
2022-08-02T22:13:38.602Z,25.63
2022-08-02T22:16:15.107Z,25.84
2022-08-02T22:18:51.507Z,25.83
2022-08-02T22:21:20.537Z,25.83
2022-08-02T22:23:51.212Z,25.82
2022-08-02T22:26:20.460Z,25.80
2022-08-02T22:28:51.103Z,25.79
2022-08-02T22:31:19.730Z,25.78
2022-08-02T22:34:26.935Z,25.76
2022-08-02T22:36:54.204Z,25.75
2022-08-02T22:39:21.919Z,25.74
2022-08-02T22:42:05.965Z,25.73
2022-08-02T22:44:34.444Z,25.71
2022-08-02T22:47:07.121Z,25.71
2022-08-02T22:49:44.588Z,25.69
2022-08-02T22:52:21.186Z,25.37
2022-08-02T22:54:49.089Z,25.68
2022-08-02T22:57:31.090Z,25.66
2022-08-02T22:58:54.654Z,26.48
2022-08-02T22:58:59.320Z,26.82
2022-08-02T22:59:59.864Z,25.65
2022-08-02T23:02:27.791Z,25.65
2022-08-02T23:04:55.509Z,25.61
2022-08-02T23:07:23.237Z,25.62
2022-08-02T23:09:50.988Z,25.62
2022-08-02T23:12:20.303Z,25.63
2022-08-02T23:14:48.078Z,25.60
2022-08-02T23:17:33.369Z,25.60
2022-08-02T23:20:01.143Z,25.58
2022-08-02T23:22:32.052Z,25.57
2022-08-02T23:25:00.309Z,25.56
2022-08-02T23:27:29.407Z,25.56
2022-08-02T23:29:57.249Z,25.55
2022-08-02T23:32:25.654Z,25.53
2022-08-02T23:34:53.899Z,25.13
2022-08-02T23:37:22.632Z,25.49
2022-08-02T23:39:51.202Z,25.52
2022-08-02T23:42:19.220Z,25.47
2022-08-02T23:44:48.435Z,25.51
2022-08-02T23:47:16.998Z,25.48
2022-08-02T23:49:44.974Z,25.47
2022-08-02T23:52:13.105Z,25.45
2022-08-02T23:54:40.947Z,25.45
2022-08-02T23:57:20.246Z,25.45
2022-08-02T23:59:51.186Z,25.42
